sensor_id;sensor_type;location;lat;lon;timestamp;P1;durP1;ratioP1;P2;durP2;ratioP2
3081;SDS011;1551;51.046;7.010;2022-08-19T00:00:57;9.80;;;9.00;;
3081;SDS011;1551;51.046;7.010;2022-08-19T00:03:47;10.90;;;9.88;;
3081;SDS011;1551;51.046;7.010;2022-08-19T00:06:37;11.40;;;10.30;;
3081;SDS011;1551;51.046;7.010;2022-08-19T00:09:27;11.45;;;10.35;;
3081;SDS011;1551;51.046;7.010;2022-08-19T00:12:17;11.67;;;10.67;;
3081;SDS011;1551;51.046;7.010;2022-08-19T00:15:11;10.77;;;9.77;;
3081;SDS011;1551;51.046;7.010;2022-08-19T00:18:02;10.70;;;9.70;;
3081;SDS011;1551;51.046;7.010;2022-08-19T00:20:51;10.60;;;9.60;;
3081;SDS011;1551;51.046;7.010;2022-08-19T00:23:40;10.43;;;9.40;;
3081;SDS011;1551;51.046;7.010;2022-08-19T00:26:31;10.40;;;9.40;;
3081;SDS011;1551;51.046;7.010;2022-08-19T00:29:21;9.80;;;8.80;;
3081;SDS011;1551;51.046;7.010;2022-08-19T00:32:11;9.75;;;8.75;;
3081;SDS011;1551;51.046;7.010;2022-08-19T00:35:01;10.10;;;9.00;;
3081;SDS011;1551;51.046;7.010;2022-08-19T00:37:50;10.85;;;9.75;;
3081;SDS011;1551;51.046;7.010;2022-08-19T00:40:39;10.20;;;9.20;;
3081;SDS011;1551;51.046;7.010;2022-08-19T00:43:30;10.30;;;9.30;;
3081;SDS011;1551;51.046;7.010;2022-08-19T00:46:20;9.88;;;8.88;;
3081;SDS011;1551;51.046;7.010;2022-08-19T00:49:10;11.43;;;10.30;;
3081;SDS011;1551;51.046;7.010;2022-08-19T00:52:07;11.25;;;10.15;;
3081;SDS011;1551;51.046;7.010;2022-08-19T00:55:01;10.90;;;9.90;;
3081;SDS011;1551;51.046;7.010;2022-08-19T00:57:53;10.40;;;9.40;;
3081;SDS011;1551;51.046;7.010;2022-08-19T01:00:48;10.80;;;9.80;;
3081;SDS011;1551;51.046;7.010;2022-08-19T01:03:37;10.55;;;9.55;;
3081;SDS011;1551;51.046;7.010;2022-08-19T01:06:26;11.10;;;10.00;;
3081;SDS011;1551;51.046;7.010;2022-08-19T01:09:15;10.27;;;9.38;;
3081;SDS011;1551;51.046;7.010;2022-08-19T01:12:05;10.70;;;9.57;;
3081;SDS011;1551;51.046;7.010;2022-08-19T01:14:54;11.50;;;10.40;;
3081;SDS011;1551;51.046;7.010;2022-08-19T01:17:44;11.80;;;10.60;;
3081;SDS011;1551;51.046;7.010;2022-08-19T01:20:34;11.65;;;10.60;;
3081;SDS011;1551;51.046;7.010;2022-08-19T01:23:23;10.57;;;9.57;;
3081;SDS011;1551;51.046;7.010;2022-08-19T01:26:31;11.25;;;10.10;;
3081;SDS011;1551;51.046;7.010;2022-08-19T01:29:26;11.88;;;10.68;;
3081;SDS011;1551;51.046;7.010;2022-08-19T01:32:16;12.02;;;10.93;;
3081;SDS011;1551;51.046;7.010;2022-08-19T01:35:06;11.30;;;10.10;;
3081;SDS011;1551;51.046;7.010;2022-08-19T01:37:57;11.57;;;10.57;;
3081;SDS011;1551;51.046;7.010;2022-08-19T01:40:48;11.15;;;10.15;;
3081;SDS011;1551;51.046;7.010;2022-08-19T01:43:37;11.40;;;10.30;;
3081;SDS011;1551;51.046;7.010;2022-08-19T01:46:27;11.75;;;10.65;;
3081;SDS011;1551;51.046;7.010;2022-08-19T01:49:20;10.98;;;9.98;;
3081;SDS011;1551;51.046;7.010;2022-08-19T01:52:11;11.40;;;10.40;;
3081;SDS011;1551;51.046;7.010;2022-08-19T01:55:00;11.80;;;10.50;;
3081;SDS011;1551;51.046;7.010;2022-08-19T01:57:54;10.13;;;9.23;;
3081;SDS011;1551;51.046;7.010;2022-08-19T02:00:45;10.68;;;9.77;;
3081;SDS011;1551;51.046;7.010;2022-08-19T02:03:35;10.23;;;9.23;;
3081;SDS011;1551;51.046;7.010;2022-08-19T02:06:24;10.80;;;9.80;;
3081;SDS011;1551;51.046;7.010;2022-08-19T02:09:13;11.30;;;10.20;;
3081;SDS011;1551;51.046;7.010;2022-08-19T02:12:03;11.23;;;10.23;;
3081;SDS011;1551;51.046;7.010;2022-08-19T02:14:53;11.55;;;10.45;;
3081;SDS011;1551;51.046;7.010;2022-08-19T02:17:42;11.13;;;9.98;;
3081;SDS011;1551;51.046;7.010;2022-08-19T02:20:31;11.85;;;10.75;;
3081;SDS011;1551;51.046;7.010;2022-08-19T02:23:20;11.98;;;10.93;;
3081;SDS011;1551;51.046;7.010;2022-08-19T02:26:09;12.68;;;11.48;;
3081;SDS011;1551;51.046;7.010;2022-08-19T02:28:59;11.10;;;10.10;;
3081;SDS011;1551;51.046;7.010;2022-08-19T02:31:48;11.25;;;10.15;;
3081;SDS011;1551;51.046;7.010;2022-08-19T02:34:37;11.63;;;10.52;;
3081;SDS011;1551;51.046;7.010;2022-08-19T02:37:26;10.85;;;9.85;;
3081;SDS011;1551;51.046;7.010;2022-08-19T02:40:34;11.68;;;10.57;;
3081;SDS011;1551;51.046;7.010;2022-08-19T02:43:25;10.55;;;9.55;;
3081;SDS011;1551;51.046;7.010;2022-08-19T02:46:16;10.80;;;9.80;;
3081;SDS011;1551;51.046;7.010;2022-08-19T02:49:13;10.80;;;9.80;;
3081;SDS011;1551;51.046;7.010;2022-08-19T02:52:04;11.43;;;10.32;;
3081;SDS011;1551;51.046;7.010;2022-08-19T02:54:54;11.35;;;10.15;;
3081;SDS011;1551;51.046;7.010;2022-08-19T02:57:46;12.25;;;11.05;;
3081;SDS011;1551;51.046;7.010;2022-08-19T03:00:40;11.65;;;10.55;;
3081;SDS011;1551;51.046;7.010;2022-08-19T03:03:31;10.93;;;9.93;;
3081;SDS011;1551;51.046;7.010;2022-08-19T03:06:21;12.02;;;10.88;;
3081;SDS011;1551;51.046;7.010;2022-08-19T03:09:11;11.27;;;10.00;;
3081;SDS011;1551;51.046;7.010;2022-08-19T03:12:02;11.00;;;9.95;;
3081;SDS011;1551;51.046;7.010;2022-08-19T03:14:52;10.18;;;9.18;;
3081;SDS011;1551;51.046;7.010;2022-08-19T03:17:41;10.70;;;9.68;;
3081;SDS011;1551;51.046;7.010;2022-08-19T03:20:30;10.95;;;9.95;;
3081;SDS011;1551;51.046;7.010;2022-08-19T03:23:19;11.20;;;10.10;;
3081;SDS011;1551;51.046;7.010;2022-08-19T03:26:10;10.98;;;9.98;;
3081;SDS011;1551;51.046;7.010;2022-08-19T03:29:03;12.90;;;11.05;;
3081;SDS011;1551;51.046;7.010;2022-08-19T03:31:53;10.75;;;9.65;;
3081;SDS011;1551;51.046;7.010;2022-08-19T03:34:43;11.63;;;10.52;;
3081;SDS011;1551;51.046;7.010;2022-08-19T03:37:32;12.68;;;11.35;;
3081;SDS011;1551;51.046;7.010;2022-08-19T03:40:21;11.32;;;10.32;;
3081;SDS011;1551;51.046;7.010;2022-08-19T03:43:10;11.88;;;10.77;;
3081;SDS011;1551;51.046;7.010;2022-08-19T03:46:03;11.07;;;9.93;;
3081;SDS011;1551;51.046;7.010;2022-08-19T03:48:54;11.65;;;10.55;;
3081;SDS011;1551;51.046;7.010;2022-08-19T03:51:46;11.50;;;10.40;;
3081;SDS011;1551;51.046;7.010;2022-08-19T03:54:37;11.52;;;10.43;;
3081;SDS011;1551;51.046;7.010;2022-08-19T03:57:27;12.18;;;10.95;;
3081;SDS011;1551;51.046;7.010;2022-08-19T04:00:16;10.90;;;10.00;;
3081;SDS011;1551;51.046;7.010;2022-08-19T04:03:05;11.20;;;10.00;;
3081;SDS011;1551;51.046;7.010;2022-08-19T04:05:54;10.77;;;9.68;;
3081;SDS011;1551;51.046;7.010;2022-08-19T04:08:44;12.10;;;10.90;;
3081;SDS011;1551;51.046;7.010;2022-08-19T04:11:36;11.38;;;10.27;;
3081;SDS011;1551;51.046;7.010;2022-08-19T04:14:30;11.32;;;10.13;;
3081;SDS011;1551;51.046;7.010;2022-08-19T04:17:20;12.55;;;11.35;;
3081;SDS011;1551;51.046;7.010;2022-08-19T04:20:11;11.70;;;10.55;;
3081;SDS011;1551;51.046;7.010;2022-08-19T04:22:59;10.50;;;9.50;;
3081;SDS011;1551;51.046;7.010;2022-08-19T04:25:48;11.18;;;10.18;;
3081;SDS011;1551;51.046;7.010;2022-08-19T04:28:37;11.00;;;10.00;;
3081;SDS011;1551;51.046;7.010;2022-08-19T04:31:28;11.77;;;10.68;;
3081;SDS011;1551;51.046;7.010;2022-08-19T04:34:19;11.77;;;10.57;;
3081;SDS011;1551;51.046;7.010;2022-08-19T04:37:10;12.30;;;10.80;;
3081;SDS011;1551;51.046;7.010;2022-08-19T04:40:00;12.45;;;11.27;;
3081;SDS011;1551;51.046;7.010;2022-08-19T04:43:08;12.63;;;11.52;;
3081;SDS011;1551;51.046;7.010;2022-08-19T04:46:10;13.40;;;12.10;;
3081;SDS011;1551;51.046;7.010;2022-08-19T04:49:00;12.27;;;10.98;;
3081;SDS011;1551;51.046;7.010;2022-08-19T04:51:51;10.98;;;9.90;;
3081;SDS011;1551;51.046;7.010;2022-08-19T04:54:42;12.27;;;11.07;;
3081;SDS011;1551;51.046;7.010;2022-08-19T04:57:31;11.52;;;10.50;;
3081;SDS011;1551;51.046;7.010;2022-08-19T05:00:20;12.17;;;11.07;;
3081;SDS011;1551;51.046;7.010;2022-08-19T05:03:09;12.23;;;11.00;;
3081;SDS011;1551;51.046;7.010;2022-08-19T05:06:09;12.35;;;11.15;;
3081;SDS011;1551;51.046;7.010;2022-08-19T05:09:02;12.45;;;11.25;;
3081;SDS011;1551;51.046;7.010;2022-08-19T05:11:52;11.93;;;10.70;;
3081;SDS011;1551;51.046;7.010;2022-08-19T05:14:42;10.98;;;9.95;;
3081;SDS011;1551;51.046;7.010;2022-08-19T05:17:32;11.02;;;9.95;;
3081;SDS011;1551;51.046;7.010;2022-08-19T05:20:21;12.18;;;11.00;;
3081;SDS011;1551;51.046;7.010;2022-08-19T05:23:29;11.60;;;10.50;;
3081;SDS011;1551;51.046;7.010;2022-08-19T05:26:18;11.70;;;10.60;;
3081;SDS011;1551;51.046;7.010;2022-08-19T05:29:09;11.85;;;10.75;;
3081;SDS011;1551;51.046;7.010;2022-08-19T05:31:58;12.20;;;11.00;;
3081;SDS011;1551;51.046;7.010;2022-08-19T05:34:48;11.50;;;10.40;;
3081;SDS011;1551;51.046;7.010;2022-08-19T05:37:37;12.20;;;10.35;;
3081;SDS011;1551;51.046;7.010;2022-08-19T05:40:28;12.40;;;11.20;;
3081;SDS011;1551;51.046;7.010;2022-08-19T05:43:17;11.85;;;10.65;;
3081;SDS011;1551;51.046;7.010;2022-08-19T05:46:07;13.00;;;11.80;;
3081;SDS011;1551;51.046;7.010;2022-08-19T05:48:56;12.73;;;11.43;;
3081;SDS011;1551;51.046;7.010;2022-08-19T05:51:45;12.68;;;11.38;;
3081;SDS011;1551;51.046;7.010;2022-08-19T05:54:34;11.50;;;10.40;;
3081;SDS011;1551;51.046;7.010;2022-08-19T05:57:26;13.65;;;11.65;;
3081;SDS011;1551;51.046;7.010;2022-08-19T06:00:17;22.20;;;19.83;;
3081;SDS011;1551;51.046;7.010;2022-08-19T06:03:06;22.15;;;19.92;;
3081;SDS011;1551;51.046;7.010;2022-08-19T06:05:55;24.80;;;21.90;;
3081;SDS011;1551;51.046;7.010;2022-08-19T06:08:44;21.92;;;19.58;;
3081;SDS011;1551;51.046;7.010;2022-08-19T06:11:46;33.33;;;26.00;;
3081;SDS011;1551;51.046;7.010;2022-08-19T06:14:42;30.25;;;20.83;;
3081;SDS011;1551;51.046;7.010;2022-08-19T06:17:31;31.75;;;22.73;;
3081;SDS011;1551;51.046;7.010;2022-08-19T06:20:20;28.83;;;22.20;;
3081;SDS011;1551;51.046;7.010;2022-08-19T06:23:09;27.95;;;24.95;;
3081;SDS011;1551;51.046;7.010;2022-08-19T06:25:58;27.70;;;24.45;;
3081;SDS011;1551;51.046;7.010;2022-08-19T06:28:47;25.38;;;22.77;;
3081;SDS011;1551;51.046;7.010;2022-08-19T06:31:36;27.50;;;24.25;;
3081;SDS011;1551;51.046;7.010;2022-08-19T06:34:31;31.27;;;27.75;;
3081;SDS011;1551;51.046;7.010;2022-08-19T06:37:21;31.30;;;28.00;;
3081;SDS011;1551;51.046;7.010;2022-08-19T06:40:11;30.38;;;26.70;;
3081;SDS011;1551;51.046;7.010;2022-08-19T06:43:01;28.75;;;25.65;;
3081;SDS011;1551;51.046;7.010;2022-08-19T06:45:51;26.08;;;23.38;;
3081;SDS011;1551;51.046;7.010;2022-08-19T06:48:40;27.20;;;24.00;;
3081;SDS011;1551;51.046;7.010;2022-08-19T06:51:29;33.95;;;29.85;;
3081;SDS011;1551;51.046;7.010;2022-08-19T06:54:20;34.90;;;31.10;;
3081;SDS011;1551;51.046;7.010;2022-08-19T06:57:09;34.15;;;29.58;;
3081;SDS011;1551;51.046;7.010;2022-08-19T07:00:04;31.27;;;27.88;;
3081;SDS011;1551;51.046;7.010;2022-08-19T07:02:55;30.63;;;25.77;;
3081;SDS011;1551;51.046;7.010;2022-08-19T07:05:44;25.85;;;22.67;;
3081;SDS011;1551;51.046;7.010;2022-08-19T07:08:33;31.17;;;28.00;;
3081;SDS011;1551;51.046;7.010;2022-08-19T07:11:25;20.40;;;18.40;;
3081;SDS011;1551;51.046;7.010;2022-08-19T07:14:15;24.25;;;21.13;;
3081;SDS011;1551;51.046;7.010;2022-08-19T07:17:08;24.48;;;21.50;;
3081;SDS011;1551;51.046;7.010;2022-08-19T07:19:58;27.73;;;24.35;;
3081;SDS011;1551;51.046;7.010;2022-08-19T07:22:47;21.95;;;19.38;;
3081;SDS011;1551;51.046;7.010;2022-08-19T07:25:37;26.73;;;22.15;;
3081;SDS011;1551;51.046;7.010;2022-08-19T07:28:26;33.20;;;26.42;;
3081;SDS011;1551;51.046;7.010;2022-08-19T07:31:16;27.40;;;24.60;;
3081;SDS011;1551;51.046;7.010;2022-08-19T07:34:09;26.15;;;22.85;;
3081;SDS011;1551;51.046;7.010;2022-08-19T07:37:00;19.48;;;17.48;;
3081;SDS011;1551;51.046;7.010;2022-08-19T07:39:51;19.63;;;17.25;;
3081;SDS011;1551;51.046;7.010;2022-08-19T07:42:40;21.88;;;18.42;;
3081;SDS011;1551;51.046;7.010;2022-08-19T07:45:30;20.08;;;18.05;;
3081;SDS011;1551;51.046;7.010;2022-08-19T07:48:20;24.73;;;22.00;;
3081;SDS011;1551;51.046;7.010;2022-08-19T07:51:10;20.42;;;18.23;;
3081;SDS011;1551;51.046;7.010;2022-08-19T07:54:00;21.10;;;18.98;;
3081;SDS011;1551;51.046;7.010;2022-08-19T07:56:49;20.67;;;18.43;;
3081;SDS011;1551;51.046;7.010;2022-08-19T07:59:39;20.40;;;18.40;;
3081;SDS011;1551;51.046;7.010;2022-08-19T08:02:28;21.63;;;19.33;;
3081;SDS011;1551;51.046;7.010;2022-08-19T08:05:17;19.80;;;17.10;;
3081;SDS011;1551;51.046;7.010;2022-08-19T08:08:26;17.23;;;14.65;;
3081;SDS011;1551;51.046;7.010;2022-08-19T08:11:34;21.80;;;19.45;;
3081;SDS011;1551;51.046;7.010;2022-08-19T08:14:24;26.00;;;21.27;;
3081;SDS011;1551;51.046;7.010;2022-08-19T08:17:16;20.87;;;18.37;;
3081;SDS011;1551;51.046;7.010;2022-08-19T08:20:08;19.85;;;17.38;;
3081;SDS011;1551;51.046;7.010;2022-08-19T08:22:59;22.60;;;20.27;;
3081;SDS011;1551;51.046;7.010;2022-08-19T08:26:06;24.23;;;21.73;;
3081;SDS011;1551;51.046;7.010;2022-08-19T08:28:55;29.15;;;25.05;;
3081;SDS011;1551;51.046;7.010;2022-08-19T08:31:45;27.10;;;22.38;;
3081;SDS011;1551;51.046;7.010;2022-08-19T08:34:35;28.08;;;23.77;;
3081;SDS011;1551;51.046;7.010;2022-08-19T08:37:25;22.75;;;20.35;;
3081;SDS011;1551;51.046;7.010;2022-08-19T08:46:13;26.03;;;23.23;;
3081;SDS011;1551;51.046;7.010;2022-08-19T08:52:13;24.85;;;21.13;;
3081;SDS011;1551;51.046;7.010;2022-08-19T08:55:11;27.73;;;23.17;;
3081;SDS011;1551;51.046;7.010;2022-08-19T08:58:04;24.17;;;21.58;;
3081;SDS011;1551;51.046;7.010;2022-08-19T09:00:58;27.15;;;24.00;;
3081;SDS011;1551;51.046;7.010;2022-08-19T09:03:47;25.80;;;21.98;;
3081;SDS011;1551;51.046;7.010;2022-08-19T09:12:32;26.30;;;22.50;;
3081;SDS011;1551;51.046;7.010;2022-08-19T09:15:46;23.70;;;21.10;;
3081;SDS011;1551;51.046;7.010;2022-08-19T09:18:42;24.27;;;20.63;;
3081;SDS011;1551;51.046;7.010;2022-08-19T09:21:34;29.13;;;24.37;;
3081;SDS011;1551;51.046;7.010;2022-08-19T09:24:23;22.58;;;20.17;;
3081;SDS011;1551;51.046;7.010;2022-08-19T09:27:12;27.77;;;23.80;;
3081;SDS011;1551;51.046;7.010;2022-08-19T09:30:01;26.48;;;22.45;;
3081;SDS011;1551;51.046;7.010;2022-08-19T09:32:50;28.80;;;24.87;;
3081;SDS011;1551;51.046;7.010;2022-08-19T09:35:41;25.83;;;20.67;;
3081;SDS011;1551;51.046;7.010;2022-08-19T09:38:30;28.58;;;24.50;;
3081;SDS011;1551;51.046;7.010;2022-08-19T09:41:22;28.33;;;24.05;;
3081;SDS011;1551;51.046;7.010;2022-08-19T09:44:13;23.75;;;20.55;;
3081;SDS011;1551;51.046;7.010;2022-08-19T09:47:02;29.88;;;24.52;;
3081;SDS011;1551;51.046;7.010;2022-08-19T09:49:52;21.92;;;19.63;;
3081;SDS011;1551;51.046;7.010;2022-08-19T09:52:41;17.80;;;15.18;;
3081;SDS011;1551;51.046;7.010;2022-08-19T09:55:30;15.23;;;13.63;;
3081;SDS011;1551;51.046;7.010;2022-08-19T09:58:19;20.98;;;17.48;;
3081;SDS011;1551;51.046;7.010;2022-08-19T10:01:09;18.17;;;16.27;;
3081;SDS011;1551;51.046;7.010;2022-08-19T10:03:59;22.35;;;17.45;;
3081;SDS011;1551;51.046;7.010;2022-08-19T10:06:49;21.98;;;18.25;;
3081;SDS011;1551;51.046;7.010;2022-08-19T10:09:39;18.80;;;15.85;;
3081;SDS011;1551;51.046;7.010;2022-08-19T10:12:29;18.33;;;16.53;;
3081;SDS011;1551;51.046;7.010;2022-08-19T10:15:19;14.45;;;12.73;;
3081;SDS011;1551;51.046;7.010;2022-08-19T10:18:10;16.15;;;13.40;;
3081;SDS011;1551;51.046;7.010;2022-08-19T10:21:04;15.52;;;13.93;;
3081;SDS011;1551;51.046;7.010;2022-08-19T10:23:59;13.18;;;11.77;;
3081;SDS011;1551;51.046;7.010;2022-08-19T10:26:50;14.70;;;10.90;;
3081;SDS011;1551;51.046;7.010;2022-08-19T10:29:38;14.07;;;12.57;;
3081;SDS011;1551;51.046;7.010;2022-08-19T10:32:28;13.10;;;11.35;;
3081;SDS011;1551;51.046;7.010;2022-08-19T10:35:17;14.40;;;12.98;;
3081;SDS011;1551;51.046;7.010;2022-08-19T10:38:07;14.32;;;12.80;;
3081;SDS011;1551;51.046;7.010;2022-08-19T10:40:56;13.82;;;12.13;;
3081;SDS011;1551;51.046;7.010;2022-08-19T10:43:45;14.20;;;12.80;;
3081;SDS011;1551;51.046;7.010;2022-08-19T10:46:36;17.37;;;15.57;;
3081;SDS011;1551;51.046;7.010;2022-08-19T10:49:30;12.07;;;10.90;;
3081;SDS011;1551;51.046;7.010;2022-08-19T10:52:20;13.40;;;12.10;;
3081;SDS011;1551;51.046;7.010;2022-08-19T10:55:23;12.23;;;11.02;;
3081;SDS011;1551;51.046;7.010;2022-08-19T10:58:31;14.57;;;13.07;;
3081;SDS011;1551;51.046;7.010;2022-08-19T11:01:20;12.30;;;11.00;;
3081;SDS011;1551;51.046;7.010;2022-08-19T11:04:09;14.60;;;13.00;;
3081;SDS011;1551;51.046;7.010;2022-08-19T11:06:59;11.93;;;10.73;;
3081;SDS011;1551;51.046;7.010;2022-08-19T11:09:48;12.23;;;10.47;;
3081;SDS011;1551;51.046;7.010;2022-08-19T11:12:38;13.57;;;10.43;;
3081;SDS011;1551;51.046;7.010;2022-08-19T11:15:29;10.53;;;9.50;;
3081;SDS011;1551;51.046;7.010;2022-08-19T11:18:21;10.57;;;8.80;;
3081;SDS011;1551;51.046;7.010;2022-08-19T11:21:44;11.82;;;10.63;;
3081;SDS011;1551;51.046;7.010;2022-08-19T11:24:28;11.63;;;10.43;;
3081;SDS011;1551;51.046;7.010;2022-08-19T11:27:17;11.80;;;10.60;;
3081;SDS011;1551;51.046;7.010;2022-08-19T11:30:06;13.85;;;11.82;;
3081;SDS011;1551;51.046;7.010;2022-08-19T11:32:56;12.68;;;11.27;;
3081;SDS011;1551;51.046;7.010;2022-08-19T11:35:45;11.82;;;10.63;;
3081;SDS011;1551;51.046;7.010;2022-08-19T11:38:35;10.90;;;9.80;;
3081;SDS011;1551;51.046;7.010;2022-08-19T11:41:25;11.30;;;10.10;;
3081;SDS011;1551;51.046;7.010;2022-08-19T11:44:14;10.85;;;9.85;;
3081;SDS011;1551;51.046;7.010;2022-08-19T11:47:03;11.20;;;10.10;;
3081;SDS011;1551;51.046;7.010;2022-08-19T11:49:53;12.88;;;11.57;;
3081;SDS011;1551;51.046;7.010;2022-08-19T11:52:42;11.00;;;9.90;;
3081;SDS011;1551;51.046;7.010;2022-08-19T11:55:36;11.95;;;10.75;;
3081;SDS011;1551;51.046;7.010;2022-08-19T11:58:27;10.53;;;9.53;;
3081;SDS011;1551;51.046;7.010;2022-08-19T12:01:18;10.63;;;9.43;;
3081;SDS011;1551;51.046;7.010;2022-08-19T12:04:08;9.63;;;8.73;;
3081;SDS011;1551;51.046;7.010;2022-08-19T12:06:58;12.17;;;10.97;;
3081;SDS011;1551;51.046;7.010;2022-08-19T12:09:47;11.38;;;10.02;;
3081;SDS011;1551;51.046;7.010;2022-08-19T12:12:35;11.45;;;10.27;;
3081;SDS011;1551;51.046;7.010;2022-08-19T12:15:28;11.00;;;9.75;;
3081;SDS011;1551;51.046;7.010;2022-08-19T12:18:17;13.32;;;10.52;;
3081;SDS011;1551;51.046;7.010;2022-08-19T12:21:06;11.20;;;10.05;;
3081;SDS011;1551;51.046;7.010;2022-08-19T12:23:57;11.30;;;10.10;;
3081;SDS011;1551;51.046;7.010;2022-08-19T12:26:48;10.30;;;9.20;;
3081;SDS011;1551;51.046;7.010;2022-08-19T12:29:37;10.90;;;8.70;;
3081;SDS011;1551;51.046;7.010;2022-08-19T12:32:26;9.95;;;8.48;;
3081;SDS011;1551;51.046;7.010;2022-08-19T12:35:15;8.80;;;7.90;;
3081;SDS011;1551;51.046;7.010;2022-08-19T12:38:06;9.47;;;7.10;;
3081;SDS011;1551;51.046;7.010;2022-08-19T12:40:55;8.43;;;7.63;;
3081;SDS011;1551;51.046;7.010;2022-08-19T12:43:44;7.65;;;6.90;;
3081;SDS011;1551;51.046;7.010;2022-08-19T12:46:34;7.22;;;6.53;;
3081;SDS011;1551;51.046;7.010;2022-08-19T12:49:23;8.00;;;7.30;;
3081;SDS011;1551;51.046;7.010;2022-08-19T12:52:12;8.43;;;7.63;;
3081;SDS011;1551;51.046;7.010;2022-08-19T12:55:05;8.20;;;7.10;;
3081;SDS011;1551;51.046;7.010;2022-08-19T12:57:56;8.93;;;7.65;;
3081;SDS011;1551;51.046;7.010;2022-08-19T13:00:45;6.85;;;6.25;;
3081;SDS011;1551;51.046;7.010;2022-08-19T13:03:34;8.00;;;7.20;;
3081;SDS011;1551;51.046;7.010;2022-08-19T13:06:23;7.10;;;6.40;;
3081;SDS011;1551;51.046;7.010;2022-08-19T13:09:12;7.80;;;6.95;;
3081;SDS011;1551;51.046;7.010;2022-08-19T13:12:02;7.75;;;6.95;;
3081;SDS011;1551;51.046;7.010;2022-08-19T13:14:55;8.63;;;7.43;;
3081;SDS011;1551;51.046;7.010;2022-08-19T13:17:45;7.60;;;6.70;;
3081;SDS011;1551;51.046;7.010;2022-08-19T13:20:36;7.90;;;6.95;;
3081;SDS011;1551;51.046;7.010;2022-08-19T13:23:26;8.35;;;6.53;;
3081;SDS011;1551;51.046;7.010;2022-08-19T13:26:15;8.98;;;7.13;;
3081;SDS011;1551;51.046;7.010;2022-08-19T13:29:05;7.80;;;7.00;;
3081;SDS011;1551;51.046;7.010;2022-08-19T13:32:13;8.43;;;7.30;;
3081;SDS011;1551;51.046;7.010;2022-08-19T13:35:20;8.68;;;7.10;;
3081;SDS011;1551;51.046;7.010;2022-08-19T13:38:10;9.93;;;6.80;;
3081;SDS011;1551;51.046;7.010;2022-08-19T13:41:03;7.28;;;6.53;;
3081;SDS011;1551;51.046;7.010;2022-08-19T13:43:54;7.53;;;5.93;;
3081;SDS011;1551;51.046;7.010;2022-08-19T13:46:43;6.93;;;6.20;;
3081;SDS011;1551;51.046;7.010;2022-08-19T13:49:34;7.18;;;5.80;;
3081;SDS011;1551;51.046;7.010;2022-08-19T13:52:24;6.80;;;5.53;;
3081;SDS011;1551;51.046;7.010;2022-08-19T13:55:14;7.30;;;5.72;;
3081;SDS011;1551;51.046;7.010;2022-08-19T13:58:03;8.20;;;6.38;;
3081;SDS011;1551;51.046;7.010;2022-08-19T14:00:53;5.80;;;5.13;;
3081;SDS011;1551;51.046;7.010;2022-08-19T14:03:42;7.38;;;6.00;;
3081;SDS011;1551;51.046;7.010;2022-08-19T14:06:33;7.60;;;6.10;;
3081;SDS011;1551;51.046;7.010;2022-08-19T14:09:22;7.70;;;5.60;;
3081;SDS011;1551;51.046;7.010;2022-08-19T14:12:11;6.05;;;5.10;;
3081;SDS011;1551;51.046;7.010;2022-08-19T14:15:00;6.03;;;5.05;;
3081;SDS011;1551;51.046;7.010;2022-08-19T14:17:51;5.60;;;4.60;;
3081;SDS011;1551;51.046;7.010;2022-08-19T14:20:41;5.10;;;4.20;;
3081;SDS011;1551;51.046;7.010;2022-08-19T14:23:31;5.15;;;4.65;;
3081;SDS011;1551;51.046;7.010;2022-08-19T14:26:21;4.93;;;4.10;;
3081;SDS011;1551;51.046;7.010;2022-08-19T14:29:11;5.30;;;4.80;;
3081;SDS011;1551;51.046;7.010;2022-08-19T14:32:01;5.97;;;5.10;;
3081;SDS011;1551;51.046;7.010;2022-08-19T14:34:50;7.10;;;6.40;;
3081;SDS011;1551;51.046;7.010;2022-08-19T14:37:40;5.25;;;4.75;;
3081;SDS011;1551;51.046;7.010;2022-08-19T14:40:31;5.35;;;4.82;;
3081;SDS011;1551;51.046;7.010;2022-08-19T14:43:20;5.15;;;4.05;;
3081;SDS011;1551;51.046;7.010;2022-08-19T14:46:10;6.63;;;4.20;;
3081;SDS011;1551;51.046;7.010;2022-08-19T14:49:01;5.70;;;4.85;;
3081;SDS011;1551;51.046;7.010;2022-08-19T14:51:50;8.23;;;4.47;;
3081;SDS011;1551;51.046;7.010;2022-08-19T14:54:39;4.32;;;3.80;;
3081;SDS011;1551;51.046;7.010;2022-08-19T14:57:28;6.90;;;4.50;;
3081;SDS011;1551;51.046;7.010;2022-08-19T15:00:17;7.50;;;3.80;;
3081;SDS011;1551;51.046;7.010;2022-08-19T15:03:06;4.20;;;3.20;;
3081;SDS011;1551;51.046;7.010;2022-08-19T15:05:55;4.85;;;4.10;;
3081;SDS011;1551;51.046;7.010;2022-08-19T15:08:46;4.60;;;3.90;;
3081;SDS011;1551;51.046;7.010;2022-08-19T15:11:35;4.75;;;3.50;;
3081;SDS011;1551;51.046;7.010;2022-08-19T15:14:26;4.97;;;3.90;;
3081;SDS011;1551;51.046;7.010;2022-08-19T15:17:16;5.03;;;3.80;;
3081;SDS011;1551;51.046;7.010;2022-08-19T15:20:06;4.65;;;4.25;;
3081;SDS011;1551;51.046;7.010;2022-08-19T15:22:56;4.75;;;4.25;;
3081;SDS011;1551;51.046;7.010;2022-08-19T15:25:47;4.38;;;3.78;;
3081;SDS011;1551;51.046;7.010;2022-08-19T15:28:36;4.85;;;3.25;;
3081;SDS011;1551;51.046;7.010;2022-08-19T15:31:25;3.60;;;3.30;;
3081;SDS011;1551;51.046;7.010;2022-08-19T15:34:16;5.28;;;3.00;;
3081;SDS011;1551;51.046;7.010;2022-08-19T15:37:06;4.80;;;3.30;;
3081;SDS011;1551;51.046;7.010;2022-08-19T15:39:55;5.03;;;3.20;;
3081;SDS011;1551;51.046;7.010;2022-08-19T15:42:44;4.70;;;3.40;;
3081;SDS011;1551;51.046;7.010;2022-08-19T15:45:34;4.70;;;3.10;;
3081;SDS011;1551;51.046;7.010;2022-08-19T15:48:23;3.45;;;3.15;;
3081;SDS011;1551;51.046;7.010;2022-08-19T15:51:12;3.95;;;3.08;;
3081;SDS011;1551;51.046;7.010;2022-08-19T15:54:03;4.30;;;3.10;;
3081;SDS011;1551;51.046;7.010;2022-08-19T15:56:53;5.20;;;3.85;;
3081;SDS011;1551;51.046;7.010;2022-08-19T16:00:02;5.38;;;3.88;;
3081;SDS011;1551;51.046;7.010;2022-08-19T16:03:12;3.65;;;3.00;;
3081;SDS011;1551;51.046;7.010;2022-08-19T16:06:21;3.45;;;2.83;;
3081;SDS011;1551;51.046;7.010;2022-08-19T16:09:17;4.82;;;3.53;;
3081;SDS011;1551;51.046;7.010;2022-08-19T16:12:09;6.43;;;3.10;;
3081;SDS011;1551;51.046;7.010;2022-08-19T16:14:58;5.32;;;3.40;;
3081;SDS011;1551;51.046;7.010;2022-08-19T16:17:47;4.70;;;3.50;;
3081;SDS011;1551;51.046;7.010;2022-08-19T16:20:36;4.82;;;3.42;;
3081;SDS011;1551;51.046;7.010;2022-08-19T16:23:26;6.03;;;3.07;;
3081;SDS011;1551;51.046;7.010;2022-08-19T16:26:15;4.53;;;2.90;;
3081;SDS011;1551;51.046;7.010;2022-08-19T16:29:07;4.82;;;3.40;;
3081;SDS011;1551;51.046;7.010;2022-08-19T16:31:56;4.72;;;3.08;;
3081;SDS011;1551;51.046;7.010;2022-08-19T16:34:46;5.13;;;3.08;;
3081;SDS011;1551;51.046;7.010;2022-08-19T16:37:35;5.13;;;3.07;;
3081;SDS011;1551;51.046;7.010;2022-08-19T16:40:24;4.20;;;3.00;;
3081;SDS011;1551;51.046;7.010;2022-08-19T16:43:13;3.22;;;2.65;;
3081;SDS011;1551;51.046;7.010;2022-08-19T16:46:02;5.10;;;3.40;;
3081;SDS011;1551;51.046;7.010;2022-08-19T16:48:51;3.70;;;3.35;;
3081;SDS011;1551;51.046;7.010;2022-08-19T16:51:40;3.50;;;3.10;;
3081;SDS011;1551;51.046;7.010;2022-08-19T16:54:31;4.35;;;3.20;;
3081;SDS011;1551;51.046;7.010;2022-08-19T16:57:20;4.05;;;3.38;;
3081;SDS011;1551;51.046;7.010;2022-08-19T17:00:11;3.95;;;3.20;;
3081;SDS011;1551;51.046;7.010;2022-08-19T17:03:05;4.80;;;3.70;;
3081;SDS011;1551;51.046;7.010;2022-08-19T17:05:58;4.90;;;2.70;;
3081;SDS011;1551;51.046;7.010;2022-08-19T17:08:53;4.70;;;2.95;;
3081;SDS011;1551;51.046;7.010;2022-08-19T17:11:45;3.50;;;2.78;;
3081;SDS011;1551;51.046;7.010;2022-08-19T17:14:35;3.20;;;2.90;;
3081;SDS011;1551;51.046;7.010;2022-08-19T17:17:24;4.47;;;3.05;;
3081;SDS011;1551;51.046;7.010;2022-08-19T17:20:13;2.95;;;2.40;;
3081;SDS011;1551;51.046;7.010;2022-08-19T17:23:02;4.07;;;2.88;;
3081;SDS011;1551;51.046;7.010;2022-08-19T17:25:52;3.10;;;2.70;;
3081;SDS011;1551;51.046;7.010;2022-08-19T17:28:41;4.05;;;3.30;;
3081;SDS011;1551;51.046;7.010;2022-08-19T17:31:32;4.13;;;3.63;;
3081;SDS011;1551;51.046;7.010;2022-08-19T17:34:22;5.10;;;3.75;;
3081;SDS011;1551;51.046;7.010;2022-08-19T17:37:11;3.60;;;3.20;;